Time;durP1;ratioP1;P1;durP2;ratioP2;P2;SDS_P1;SDS_P2;PMS_P1;PMS_P2;Temp;Humidity;BMP_temperature;BMP_pressure;BME280_temperature;BME280_humidity;BME280_pressure;Samples;Min_cycle;Max_cycle;Signal;HPM_P1;HPM_P2
2021/10/30 00:00:54;;;;;;;509.90;111.03;;;12.30;99.90;;;;;;5015003;28;20546;-75
2021/10/30 00:03:23;;;;;;;307.90;62.17;;;12.30;99.90;;;;;;5016411;28;20933;-75
2021/10/30 00:05:53;;;;;;;344.00;76.37;;;12.20;99.90;;;;;;5015023;28;20958;-75
2021/10/30 00:08:21;;;;;;;457.50;89.67;;;12.20;99.90;;;;;;5014910;28;20808;-75
2021/10/30 00:10:49;;;;;;;401.17;80.10;;;12.20;99.90;;;;;;5048223;28;20515;-74
2021/10/30 00:13:17;;;;;;;415.03;102.00;;;12.20;99.90;;;;;;5014919;28;20478;-75
2021/10/30 00:15:45;;;;;;;309.23;51.60;;;12.20;99.90;;;;;;5015229;28;20447;-75
2021/10/30 00:18:15;;;;;;;377.50;68.43;;;12.20;99.90;;;;;;5016099;28;20450;-75
2021/10/30 00:20:43;;;;;;;331.47;73.53;;;12.20;99.90;;;;;;5016280;28;20490;-75
2021/10/30 00:23:11;;;;;;;367.93;55.70;;;12.10;99.90;;;;;;5014786;28;20479;-75
2021/10/30 00:25:39;;;;;;;394.20;106.73;;;12.10;99.90;;;;;;5016059;28;20450;-75
2021/10/30 00:28:07;;;;;;;387.27;79.47;;;12.10;99.90;;;;;;5016217;28;20506;-75
2021/10/30 00:30:36;;;;;;;297.63;62.87;;;12.00;99.90;;;;;;5016001;28;20460;-75
2021/10/30 00:33:04;;;;;;;333.40;79.30;;;12.00;99.90;;;;;;5014628;28;20507;-75
2021/10/30 00:35:33;;;;;;;367.07;72.03;;;12.00;99.90;;;;;;5016219;28;20452;-75
2021/10/30 00:38:02;;;;;;;315.10;48.17;;;12.00;99.90;;;;;;5014754;28;20451;-75
2021/10/30 00:40:30;;;;;;;391.67;78.57;;;12.00;99.90;;;;;;5014305;28;20888;-75
2021/10/30 00:42:58;;;;;;;282.47;57.10;;;11.90;99.90;;;;;;5047561;28;20451;-75
2021/10/30 00:45:26;;;;;;;414.23;67.67;;;11.90;99.90;;;;;;5015992;28;20959;-75
2021/10/30 00:47:54;;;;;;;372.63;73.67;;;11.90;99.90;;;;;;5014612;28;20941;-75
2021/10/30 00:50:23;;;;;;;283.10;36.53;;;11.90;99.90;;;;;;5014233;28;20463;-75
2021/10/30 00:52:53;;;;;;;419.00;82.00;;;11.90;99.90;;;;;;5014193;28;20810;-75
2021/10/30 00:55:23;;;;;;;287.20;56.43;;;11.80;99.90;;;;;;5014211;28;21040;-75
2021/10/30 00:57:53;;;;;;;316.67;48.27;;;11.80;99.90;;;;;;5015584;28;20921;-75
2021/10/30 01:00:21;;;;;;;239.20;50.40;;;11.80;99.90;;;;;;5014804;28;20821;-75
2021/10/30 01:02:56;;;;;;;308.20;61.67;;;11.80;99.90;;;;;;5015565;28;20420;-75
2021/10/30 01:05:24;;;;;;;199.80;41.97;;;11.80;99.90;;;;;;5015192;28;20956;-75
2021/10/30 01:07:54;;;;;;;335.27;53.10;;;11.80;99.90;;;;;;5013909;28;20494;-75
2021/10/30 01:10:22;;;;;;;370.30;59.20;;;11.80;99.90;;;;;;5013804;28;20464;-75
2021/10/30 01:12:51;;;;;;;317.73;61.90;;;11.80;99.90;;;;;;5013732;28;20478;-74
2021/10/30 01:15:19;;;;;;;224.03;44.87;;;11.80;99.90;;;;;;5015284;28;20442;-75
2021/10/30 01:17:47;;;;;;;368.87;74.17;;;11.80;99.90;;;;;;5014972;28;20444;-75
2021/10/30 01:20:26;;;;;;;467.20;74.37;;;11.80;99.90;;;;;;5013654;28;20554;-75
2021/10/30 01:22:58;;;;;;;247.63;37.27;;;11.80;99.90;;;;;;5013776;28;20823;-75
2021/10/30 01:25:26;;;;;;;461.77;60.67;;;11.80;99.90;;;;;;5013791;28;20448;-75
2021/10/30 01:27:56;;;;;;;275.87;54.87;;;11.80;99.90;;;;;;5013533;28;20456;-75
2021/10/30 01:30:24;;;;;;;414.37;68.23;;;11.70;99.90;;;;;;5013541;28;20642;-75
2021/10/30 01:32:57;;;;;;;360.77;56.73;;;11.70;99.90;;;;;;5014983;28;20555;-75
2021/10/30 01:35:32;;;;;;;289.40;57.60;;;11.70;99.90;;;;;;5013738;28;20547;-75
2021/10/30 01:38:01;;;;;;;374.10;58.40;;;11.70;99.90;;;;;;5013316;28;20542;-75
2021/10/30 01:40:38;;;;;;;238.93;48.97;;;11.60;99.90;;;;;;5014929;28;20452;-75
2021/10/30 01:43:09;;;;;;;290.50;49.03;;;11.60;99.90;;;;;;5013712;28;20459;-75
2021/10/30 01:45:37;;;;;;;248.03;44.97;;;11.60;99.90;;;;;;5013384;28;20797;-75
2021/10/30 01:48:06;;;;;;;314.93;63.33;;;11.50;99.90;;;;;;5013133;28;20845;-75
2021/10/30 01:50:35;;;;;;;335.77;59.87;;;11.50;99.90;;;;;;5013244;28;20466;-75
2021/10/30 01:53:04;;;;;;;304.70;66.90;;;11.50;99.90;;;;;;5013054;28;20474;-75
2021/10/30 01:55:35;;;;;;;420.53;68.43;;;11.50;99.90;;;;;;5014329;28;20872;-75
2021/10/30 01:58:04;;;;;;;270.63;47.60;;;11.40;99.90;;;;;;5014198;28;20475;-75
2021/10/30 02:00:33;;;;;;;211.27;42.07;;;11.40;99.90;;;;;;5013017;28;20468;-75
2021/10/30 02:03:01;;;;;;;192.27;42.60;;;11.40;99.90;;;;;;5014184;28;20439;-75
2021/10/30 02:05:29;;;;;;;268.70;41.63;;;11.40;99.90;;;;;;5014095;28;20432;-75
2021/10/30 02:08:00;;;;;;;391.10;53.27;;;11.40;99.90;;;;;;5012903;28;20451;-75
2021/10/30 02:10:28;;;;;;;195.40;36.27;;;11.30;99.90;;;;;;5014424;28;20479;-75
2021/10/30 02:12:57;;;;;;;319.37;47.23;;;11.30;99.90;;;;;;5014045;28;20467;-75
2021/10/30 02:15:26;;;;;;;235.57;36.93;;;11.30;99.90;;;;;;5014104;28;20538;-75
2021/10/30 02:17:54;;;;;;;218.03;28.80;;;11.30;99.90;;;;;;5014007;28;20447;-75
2021/10/30 02:20:22;;;;;;;290.97;48.33;;;11.30;99.90;;;;;;5014140;28;20884;-75
2021/10/30 02:22:53;;;;;;;280.07;49.13;;;11.30;99.90;;;;;;5013711;28;20436;-75
2021/10/30 02:25:22;;;;;;;188.83;34.13;;;11.30;99.90;;;;;;5012594;28;20802;-75
2021/10/30 02:27:53;;;;;;;329.40;52.13;;;11.30;99.90;;;;;;5013941;28;20420;-75
2021/10/30 02:30:22;;;;;;;283.73;42.70;;;11.30;99.90;;;;;;5013710;28;20458;-75
2021/10/30 02:32:50;;;;;;;153.53;36.10;;;11.30;99.90;;;;;;5012513;28;20567;-75
2021/10/30 02:35:19;;;;;;;314.23;54.83;;;11.30;99.90;;;;;;5013498;28;20957;-75
2021/10/30 02:37:49;;;;;;;298.63;55.03;;;11.30;99.90;;;;;;5012430;28;20546;-75
2021/10/30 02:40:18;;;;;;;303.23;45.47;;;11.30;99.90;;;;;;5012618;28;20464;-75
2021/10/30 02:42:47;;;;;;;320.07;54.43;;;11.30;99.90;;;;;;5013666;28;20442;-75
2021/10/30 02:45:15;;;;;;;208.23;38.47;;;11.30;99.90;;;;;;5014060;28;20520;-75
2021/10/30 02:47:43;;;;;;;302.53;60.27;;;11.30;99.90;;;;;;5012262;28;20452;-75
2021/10/30 02:50:12;;;;;;;328.83;52.07;;;11.40;99.90;;;;;;5012205;28;20464;-75
2021/10/30 02:52:40;;;;;;;295.13;43.00;;;11.30;99.90;;;;;;5012492;28;20874;-75
2021/10/30 02:55:09;;;;;;;219.90;35.33;;;11.30;99.90;;;;;;5012262;28;20889;-75
2021/10/30 02:57:37;;;;;;;229.33;35.67;;;11.30;99.90;;;;;;5045468;28;20547;-75
2021/10/30 03:00:08;;;;;;;148.27;36.20;;;11.30;99.90;;;;;;5012546;28;20827;-75
2021/10/30 03:02:36;;;;;;;275.90;61.83;;;11.30;99.90;;;;;;5013889;28;20515;-75
2021/10/30 03:05:06;;;;;;;325.23;56.87;;;11.30;99.90;;;;;;5013659;28;20440;-75
2021/10/30 03:07:34;;;;;;;304.27;58.23;;;11.20;99.90;;;;;;5045578;28;20835;-75
2021/10/30 03:10:02;;;;;;;293.90;50.60;;;11.20;99.90;;;;;;5013271;28;20965;-75
2021/10/30 03:12:31;;;;;;;124.40;30.00;;;11.20;99.90;;;;;;5012218;28;20467;-75
2021/10/30 03:15:00;;;;;;;251.33;51.70;;;11.20;99.90;;;;;;5012456;28;20522;-75
2021/10/30 03:17:29;;;;;;;262.67;49.53;;;11.20;99.90;;;;;;5012226;28;20444;-75
2021/10/30 03:19:59;;;;;;;218.93;45.60;;;11.10;99.90;;;;;;5045067;28;20492;-75
2021/10/30 03:22:27;;;;;;;248.97;50.63;;;11.10;99.90;;;;;;5013313;28;20444;-75
2021/10/30 03:24:55;;;;;;;249.03;54.77;;;11.10;99.90;;;;;;5012025;28;20473;-75
2021/10/30 03:27:23;;;;;;;199.27;54.93;;;11.00;99.90;;;;;;5014003;28;20436;-75
2021/10/30 03:29:52;;;;;;;170.13;41.60;;;11.10;99.90;;;;;;5011952;28;20471;-75
2021/10/30 03:32:20;;;;;;;269.17;47.13;;;11.00;99.90;;;;;;5012024;28;20458;-75
2021/10/30 03:34:50;;;;;;;225.30;52.73;;;11.00;99.90;;;;;;5045339;28;20471;-75
2021/10/30 03:37:18;;;;;;;212.77;43.23;;;11.00;99.90;;;;;;5017201;28;20420;-75
2021/10/30 03:39:47;;;;;;;259.47;44.47;;;11.00;99.90;;;;;;5015742;28;20575;-75
2021/10/30 03:42:15;;;;;;;163.37;40.30;;;11.00;99.90;;;;;;5016677;28;20439;-75
2021/10/30 03:44:45;;;;;;;167.77;38.10;;;11.00;99.90;;;;;;5015486;28;20498;-75
2021/10/30 03:47:13;;;;;;;224.63;48.30;;;10.90;99.90;;;;;;5016669;28;20436;-75
2021/10/30 03:49:41;;;;;;;157.43;39.73;;;10.90;99.90;;;;;;5016067;28;20473;-73
2021/10/30 03:52:10;;;;;;;216.53;41.23;;;10.90;99.90;;;;;;5015588;28;20809;-75
2021/10/30 03:54:39;;;;;;;271.60;49.80;;;10.90;99.90;;;;;;5017017;28;20467;-75
2021/10/30 03:57:07;;;;;;;248.50;40.47;;;10.90;99.90;;;;;;5015300;28;20957;-75
2021/10/30 03:59:35;;;;;;;211.93;38.23;;;10.90;99.90;;;;;;5016652;28;20543;-75
2021/10/30 04:02:04;;;;;;;310.63;44.73;;;10.90;99.90;;;;;;5017001;28;20930;-75
2021/10/30 04:04:34;;;;;;;225.97;45.67;;;10.90;99.90;;;;;;5015067;28;20892;-75
2021/10/30 04:07:04;;;;;;;249.70;55.00;;;10.90;99.90;;;;;;5015204;28;20952;-75
2021/10/30 04:09:35;;;;;;;174.50;44.07;;;10.80;99.90;;;;;;5015063;28;20472;-75
2021/10/30 04:12:04;;;;;;;234.93;37.97;;;10.80;99.90;;;;;;5016605;28;20440;-75
2021/10/30 04:14:33;;;;;;;202.87;51.30;;;10.80;99.90;;;;;;5014905;28;20567;-75
2021/10/30 04:17:01;;;;;;;215.13;34.67;;;10.80;99.90;;;;;;5016156;28;20524;-75
2021/10/30 04:19:29;;;;;;;181.67;44.07;;;10.80;99.90;;;;;;5014811;28;20463;-75
2021/10/30 04:21:57;;;;;;;253.33;44.60;;;10.80;99.90;;;;;;5016235;28;20436;-75
2021/10/30 04:24:25;;;;;;;219.93;43.33;;;10.80;99.90;;;;;;5014959;28;20890;-75
2021/10/30 04:26:55;;;;;;;208.17;54.93;;;10.80;99.90;;;;;;5015975;28;20451;-75
2021/10/30 04:29:23;;;;;;;160.57;33.37;;;10.80;99.90;;;;;;5014690;28;20483;-74
2021/10/30 04:31:54;;;;;;;220.57;39.60;;;10.80;99.90;;;;;;5015870;28;20428;-75
2021/10/30 04:34:30;;;;;;;185.20;41.83;;;10.80;99.90;;;;;;5014697;28;20475;-75
2021/10/30 04:36:58;;;;;;;181.53;46.30;;;10.80;99.90;;;;;;5014652;28;20452;-75
2021/10/30 04:39:27;;;;;;;144.87;38.20;;;10.80;99.90;;;;;;5014418;28;20873;-75
2021/10/30 04:41:56;;;;;;;178.70;46.87;;;10.80;99.90;;;;;;5014459;28;20494;-75
2021/10/30 04:44:24;;;;;;;195.00;45.87;;;10.80;99.90;;;;;;5015914;28;20432;-75
2021/10/30 04:46:52;;;;;;;224.53;42.03;;;10.80;99.90;;;;;;5015506;28;20522;-75
2021/10/30 04:49:20;;;;;;;298.77;61.50;;;10.70;99.90;;;;;;5014289;28;20829;-75
2021/10/30 04:51:49;;;;;;;201.43;42.50;;;10.80;99.90;;;;;;5015894;28;20455;-75
2021/10/30 04:54:17;;;;;;;138.03;33.17;;;10.70;99.90;;;;;;5015646;28;20560;-75
2021/10/30 04:56:45;;;;;;;194.50;42.63;;;10.70;99.90;;;;;;5015730;28;20448;-75
2021/10/30 04:59:14;;;;;;;191.03;43.10;;;10.70;99.90;;;;;;5014243;28;20456;-74
2021/10/30 05:01:42;;;;;;;182.83;39.90;;;10.70;99.90;;;;;;5014044;28;20447;-75
2021/10/30 05:04:11;;;;;;;281.93;53.03;;;10.70;99.90;;;;;;5015390;28;20789;-75
2021/10/30 05:06:39;;;;;;;253.33;51.47;;;10.70;99.90;;;;;;5015228;28;20451;-75
2021/10/30 05:09:07;;;;;;;178.53;41.27;;;10.70;99.90;;;;;;5015070;28;20444;-75
2021/10/30 05:11:35;;;;;;;288.87;43.90;;;10.70;99.90;;;;;;5015179;28;20440;-75
2021/10/30 05:14:03;;;;;;;296.03;47.33;;;10.70;99.90;;;;;;5046999;28;20472;-75
2021/10/30 05:16:33;;;;;;;298.43;52.70;;;10.80;99.90;;;;;;5013855;28;20873;-75
2021/10/30 05:19:01;;;;;;;250.63;43.37;;;10.70;99.90;;;;;;5013768;28;20444;-74
2021/10/30 05:21:30;;;;;;;218.73;45.73;;;10.70;99.90;;;;;;5015064;28;20442;-75
2021/10/30 05:23:58;;;;;;;204.53;48.87;;;10.70;99.90;;;;;;5014862;28;20450;-75
2021/10/30 05:26:26;;;;;;;236.87;40.53;;;10.70;99.90;;;;;;5014946;28;20438;-75
2021/10/30 05:28:54;;;;;;;262.50;38.40;;;10.70;99.90;;;;;;5013490;28;20444;-75
2021/10/30 05:31:22;;;;;;;177.07;38.10;;;10.70;99.90;;;;;;5014656;28;20460;-75
2021/10/30 05:33:52;;;;;;;266.63;46.40;;;10.70;99.90;;;;;;5015005;28;20498;-75
2021/10/30 05:36:39;;;;;;;216.50;40.17;;;10.70;99.90;;;;;;5014912;28;20483;-75
2021/10/30 05:39:23;;;;;;;266.63;44.97;;;10.70;99.90;;;;;;5013423;28;20960;-74
2021/10/30 05:41:51;;;;;;;275.73;52.13;;;10.70;99.90;;;;;;5014606;28;20479;-75
2021/10/30 05:44:20;;;;;;;216.43;55.40;;;10.70;99.90;;;;;;5013322;28;20446;-75
2021/10/30 05:46:48;;;;;;;258.73;55.77;;;10.70;99.90;;;;;;5014760;28;20527;-75
2021/10/30 05:49:19;;;;;;;300.97;54.40;;;10.70;99.90;;;;;;5014394;28;20490;-74
2021/10/30 05:51:47;;;;;;;244.77;43.87;;;10.70;99.90;;;;;;5014239;28;20539;-75
2021/10/30 05:54:15;;;;;;;212.90;45.67;;;10.70;99.90;;;;;;5012991;28;20807;-75
2021/10/30 05:56:43;;;;;;;183.63;44.20;;;10.70;99.90;;;;;;5014380;28;20475;-75
2021/10/30 05:59:11;;;;;;;192.90;40.50;;;10.70;99.90;;;;;;5013647;28;20432;-75
2021/10/30 06:01:39;;;;;;;226.80;48.07;;;10.70;99.90;;;;;;5012924;28;20448;-75
2021/10/30 06:04:08;;;;;;;252.30;51.27;;;10.70;99.90;;;;;;5014540;28;20444;-75
2021/10/30 06:06:37;;;;;;;180.20;43.33;;;10.70;99.90;;;;;;5012846;28;20554;-75
2021/10/30 06:09:05;;;;;;;215.37;49.10;;;10.70;99.90;;;;;;5013086;28;20452;-75
2021/10/30 06:11:33;;;;;;;222.47;52.47;;;10.70;99.90;;;;;;5012849;28;20443;-75
2021/10/30 06:14:03;;;;;;;247.17;53.57;;;10.70;99.90;;;;;;5012830;28;20538;-75
2021/10/30 06:16:31;;;;;;;202.37;48.27;;;10.70;99.90;;;;;;5013827;28;20471;-74
2021/10/30 06:18:59;;;;;;;210.40;47.43;;;10.70;99.90;;;;;;5012622;28;20458;-75
2021/10/30 06:21:28;;;;;;;162.47;37.33;;;10.70;99.90;;;;;;5014025;28;20846;-75
2021/10/30 06:23:58;;;;;;;169.97;37.07;;;10.70;99.90;;;;;;5013965;28;20442;-75
2021/10/30 06:26:28;;;;;;;161.43;47.73;;;10.70;99.90;;;;;;5012793;28;20491;-75
2021/10/30 06:28:57;;;;;;;284.47;48.17;;;10.70;99.90;;;;;;5013862;28;20945;-75
2021/10/30 06:31:25;;;;;;;214.60;43.77;;;10.70;99.90;;;;;;5012602;28;20475;-75
2021/10/30 06:33:53;;;;;;;223.77;48.37;;;10.70;99.90;;;;;;5014112;28;20442;-75
2021/10/30 06:36:21;;;;;;;193.40;43.90;;;10.60;99.90;;;;;;5045407;28;20480;-75
2021/10/30 06:38:50;;;;;;;141.30;39.53;;;10.60;99.90;;;;;;5012436;28;20551;-75
2021/10/30 06:41:40;;;;;;;121.77;37.20;;;10.70;99.90;;;;;;5014004;28;20436;-75
2021/10/30 06:44:08;;;;;;;274.80;48.60;;;10.60;99.90;;;;;;5012396;28;20448;-75
2021/10/30 06:46:36;;;;;;;302.97;52.80;;;10.60;99.90;;;;;;5013113;28;20490;-75
2021/10/30 06:49:08;;;;;;;255.30;58.67;;;10.60;99.90;;;;;;5012365;28;20456;-75
2021/10/30 06:51:38;;;;;;;235.10;51.73;;;10.60;99.90;;;;;;5046209;28;20480;-75
2021/10/30 06:54:07;;;;;;;258.50;54.20;;;10.60;99.90;;;;;;5013545;28;20436;-75
2021/10/30 06:56:35;;;;;;;283.40;55.97;;;10.60;99.90;;;;;;5012184;28;20912;-75
2021/10/30 06:59:05;;;;;;;251.37;43.60;;;10.60;99.90;;;;;;5012181;28;20836;-75
2021/10/30 07:01:35;;;;;;;274.03;52.07;;;10.70;99.90;;;;;;5046559;28;20552;-75
2021/10/30 07:04:04;;;;;;;273.67;59.27;;;10.60;99.90;;;;;;5013726;28;20443;-75
2021/10/30 07:06:32;;;;;;;248.63;48.60;;;10.60;99.90;;;;;;5013954;28;20527;-75
2021/10/30 07:09:00;;;;;;;242.57;49.23;;;10.70;99.90;;;;;;5014675;28;20439;-75
2021/10/30 07:11:28;;;;;;;207.07;46.77;;;10.70;99.90;;;;;;5017723;28;20460;-75
2021/10/30 07:13:56;;;;;;;213.23;51.37;;;10.70;99.90;;;;;;5016205;28;20933;-75
2021/10/30 07:16:26;;;;;;;223.67;41.37;;;10.70;99.90;;;;;;5017269;28;20503;-75
2021/10/30 07:18:54;;;;;;;243.93;50.70;;;10.70;99.90;;;;;;5015974;28;20483;-75
2021/10/30 07:21:22;;;;;;;180.80;42.43;;;10.70;99.90;;;;;;5017390;28;20546;-75
2021/10/30 07:23:50;;;;;;;301.67;54.30;;;10.70;99.90;;;;;;5015972;28;20440;-75
2021/10/30 07:26:19;;;;;;;276.07;57.53;;;10.70;99.90;;;;;;5016212;28;20444;-75
2021/10/30 07:28:47;;;;;;;255.70;46.50;;;10.70;99.90;;;;;;5015978;28;20456;-75
2021/10/30 07:31:15;;;;;;;208.13;41.77;;;10.70;99.90;;;;;;5017213;28;20469;-75
2021/10/30 07:33:44;;;;;;;225.53;48.17;;;10.70;99.90;;;;;;5016954;28;20506;-75
2021/10/30 07:36:12;;;;;;;195.93;39.77;;;10.70;99.90;;;;;;5015529;28;20487;-75
2021/10/30 07:38:40;;;;;;;186.80;41.90;;;10.70;99.90;;;;;;5015562;28;20975;-75
2021/10/30 07:41:09;;;;;;;254.30;48.07;;;10.80;99.90;;;;;;5015560;28;20522;-75
2021/10/30 07:43:37;;;;;;;184.80;44.33;;;10.80;99.90;;;;;;5016830;28;20442;-75
2021/10/30 07:46:05;;;;;;;179.07;53.47;;;10.80;99.90;;;;;;5015405;28;20440;-75
2021/10/30 07:48:33;;;;;;;165.87;56.33;;;10.80;99.90;;;;;;5015581;28;20817;-75
2021/10/30 07:51:03;;;;;;;182.70;42.97;;;10.80;99.90;;;;;;5015324;28;20467;-75
2021/10/30 07:53:32;;;;;;;262.23;49.17;;;10.80;99.90;;;;;;5015378;28;20547;-75
2021/10/30 07:56:00;;;;;;;318.00;56.20;;;10.80;99.90;;;;;;5017032;28;20502;-75
2021/10/30 07:58:28;;;;;;;181.77;49.20;;;10.80;99.90;;;;;;5015176;28;20985;-75
2021/10/30 08:00:56;;;;;;;149.50;46.03;;;10.90;99.90;;;;;;5017062;28;20839;-75
2021/10/30 08:03:25;;;;;;;219.70;55.07;;;10.90;99.90;;;;;;5016477;28;20488;-75
2021/10/30 08:05:53;;;;;;;288.90;53.50;;;10.90;99.90;;;;;;5016665;28;20491;-75
2021/10/30 08:08:22;;;;;;;220.87;57.53;;;10.90;99.90;;;;;;5016398;28;20450;-75
2021/10/30 08:10:51;;;;;;;193.13;45.50;;;10.90;99.90;;;;;;5017102;28;20470;-75
2021/10/30 08:13:19;;;;;;;196.23;45.27;;;10.90;99.90;;;;;;5015126;28;20517;-75
2021/10/30 08:15:47;;;;;;;197.93;42.03;;;10.90;99.90;;;;;;5014885;28;20467;-75
2021/10/30 08:18:15;;;;;;;210.70;53.10;;;10.90;99.90;;;;;;5016305;28;20446;-75
2021/10/30 08:20:46;;;;;;;167.83;45.37;;;10.90;99.90;;;;;;5014040;28;20543;-75
2021/10/30 08:23:14;;;;;;;274.33;62.37;;;10.90;99.90;;;;;;5016566;28;20440;-75
2021/10/30 08:25:45;;;;;;;126.50;40.33;;;11.00;99.90;;;;;;5014805;28;20467;-75
2021/10/30 08:28:13;;;;;;;184.27;48.37;;;10.90;99.90;;;;;;5016409;28;20516;-75
2021/10/30 08:30:41;;;;;;;183.17;53.10;;;11.00;99.90;;;;;;5014697;28;20977;-75
2021/10/30 08:33:13;;;;;;;208.13;53.70;;;11.00;99.90;;;;;;5014698;28;20439;-75
2021/10/30 08:35:42;;;;;;;300.87;70.03;;;11.00;99.90;;;;;;5014337;28;20845;-75
2021/10/30 08:38:10;;;;;;;187.10;48.33;;;11.00;99.90;;;;;;5014535;28;20490;-75
2021/10/30 08:40:39;;;;;;;137.87;39.23;;;11.00;99.90;;;;;;5015651;28;20467;-75
2021/10/30 08:43:17;;;;;;;181.20;44.90;;;11.00;99.90;;;;;;5015704;28;20507;-75
2021/10/30 08:45:46;;;;;;;156.33;46.23;;;11.10;99.90;;;;;;5014426;28;20465;-75
2021/10/30 08:48:14;;;;;;;285.03;67.30;;;11.10;99.90;;;;;;5015877;28;20962;-75
2021/10/30 08:50:42;;;;;;;237.00;61.70;;;11.10;99.90;;;;;;5014380;28;20534;-74
2021/10/30 08:53:11;;;;;;;141.33;41.77;;;11.10;99.90;;;;;;5014424;28;20454;-75
2021/10/30 08:55:39;;;;;;;273.93;53.70;;;11.10;99.90;;;;;;5014236;28;20543;-75
2021/10/30 08:58:09;;;;;;;228.90;53.33;;;11.10;99.90;;;;;;5015992;28;20488;-75
2021/10/30 09:00:43;;;;;;;193.97;53.33;;;11.20;99.90;;;;;;5014135;28;20574;-75
2021/10/30 09:03:14;;;;;;;167.60;47.23;;;11.20;99.90;;;;;;5014218;28;20821;-75
2021/10/30 09:05:45;;;;;;;211.53;52.37;;;11.20;99.90;;;;;;5015642;28;20424;-75
2021/10/30 09:08:14;;;;;;;252.67;60.33;;;11.20;99.90;;;;;;5016031;28;20844;-75
2021/10/30 09:10:45;;;;;;;269.47;51.93;;;11.20;99.90;;;;;;5015036;28;20999;-75
2021/10/30 09:13:14;;;;;;;229.90;48.57;;;11.20;99.90;;;;;;5046918;28;20949;-75
2021/10/30 09:15:47;;;;;;;182.17;42.23;;;11.20;99.90;;;;;;5015334;28;20531;-75
2021/10/30 09:18:29;;;;;;;197.53;55.77;;;11.20;99.90;;;;;;5013806;28;20463;-75
2021/10/30 09:21:14;;;;;;;150.13;42.07;;;11.20;99.90;;;;;;5013729;28;20464;-75
2021/10/30 09:23:45;;;;;;;186.40;50.73;;;11.20;99.90;;;;;;5013662;28;20444;-75
2021/10/30 09:26:18;;;;;;;357.87;77.30;;;11.20;99.90;;;;;;5015203;28;20420;-75
2021/10/30 09:28:52;;;;;;;323.93;67.83;;;11.20;99.90;;;;;;5013712;28;20526;-75
2021/10/30 09:31:22;;;;;;;261.90;60.93;;;11.20;99.90;;;;;;5015019;28;20471;-75
2021/10/30 09:33:52;;;;;;;211.03;59.13;;;11.20;99.90;;;;;;5013656;28;20483;-75
2021/10/30 09:36:22;;;;;;;193.17;45.67;;;11.20;99.90;;;;;;5013376;28;22908;-75
2021/10/30 09:38:54;;;;;;;289.47;61.20;;;11.20;99.90;;;;;;5014897;28;20447;-75
2021/10/30 09:41:30;;;;;;;282.67;69.73;;;11.20;99.90;;;;;;5015135;28;20464;-75
2021/10/30 09:44:00;;;;;;;210.57;52.60;;;11.30;99.90;;;;;;5013283;28;20463;-75
2021/10/30 09:46:30;;;;;;;197.20;52.10;;;11.30;99.90;;;;;;5014045;28;20530;-75
2021/10/30 09:49:10;;;;;;;203.97;47.20;;;11.30;99.90;;;;;;5013573;28;20448;-75
2021/10/30 09:51:39;;;;;;;215.83;56.47;;;11.30;99.90;;;;;;5013288;28;20546;-75
2021/10/30 09:54:08;;;;;;;269.17;61.30;;;11.30;99.90;;;;;;5013232;28;20455;-75
2021/10/30 09:56:44;;;;;;;196.97;56.47;;;11.30;99.90;;;;;;5014335;28;20566;-75
2021/10/30 09:59:14;;;;;;;16.73;15.13;;;11.30;99.90;;;;;;5013836;28;20439;-75
2021/10/30 10:01:45;;;;;;;246.10;61.23;;;11.40;99.90;;;;;;5014322;28;20185;-75
2021/10/30 10:04:15;;;;;;;192.43;62.13;;;11.40;99.90;;;;;;5013163;28;20821;-74
2021/10/30 10:06:44;;;;;;;234.57;56.30;;;11.40;99.90;;;;;;5012963;28;20448;-75
2021/10/30 10:09:13;;;;;;;267.10;51.03;;;11.40;99.90;;;;;;5014096;28;20514;-75
2021/10/30 10:11:43;;;;;;;275.17;53.00;;;11.40;99.90;;;;;;5012897;28;20452;-75
2021/10/30 10:14:13;;;;;;;215.23;53.50;;;11.40;99.90;;;;;;5014345;28;20450;-75
2021/10/30 10:16:41;;;;;;;232.87;54.73;;;11.40;99.90;;;;;;5012748;28;20454;-75
2021/10/30 10:19:11;;;;;;;146.33;46.17;;;11.40;99.90;;;;;;5012685;28;20470;-75
2021/10/30 10:21:40;;;;;;;216.03;41.67;;;11.40;99.90;;;;;;5045763;28;20450;-75
2021/10/30 10:24:13;;;;;;;198.87;51.47;;;11.40;99.90;;;;;;5012693;28;20444;-75
2021/10/30 10:26:49;;;;;;;234.67;53.43;;;11.40;99.90;;;;;;5014183;28;20523;-75
2021/10/30 10:29:30;;;;;;;282.37;58.53;;;11.40;99.90;;;;;;5013929;28;20456;-75
2021/10/30 10:31:59;;;;;;;293.43;47.40;;;11.40;99.90;;;;;;5012647;28;20444;-75
2021/10/30 10:34:32;;;;;;;276.07;51.13;;;11.40;99.90;;;;;;5012615;28;20447;-75
2021/10/30 10:37:21;;;;;;;282.83;62.10;;;11.40;99.90;;;;;;5012425;28;20567;-75
2021/10/30 10:39:54;;;;;;;301.87;49.47;;;11.40;99.90;;;;;;5012425;28;20562;-75
2021/10/30 10:42:41;;;;;;;268.30;56.40;;;11.40;99.90;;;;;;5014046;28;20448;-75
2021/10/30 10:45:09;;;;;;;338.93;68.13;;;11.50;99.90;;;;;;5012064;28;20817;-75
2021/10/30 10:47:55;;;;;;;237.20;49.73;;;11.50;99.90;;;;;;5012282;28;20808;-75
2021/10/30 10:50:28;;;;;;;214.13;52.23;;;11.50;99.90;;;;;;5013831;28;20824;-75
2021/10/30 10:53:29;;;;;;;241.77;54.40;;;11.50;99.90;;;;;;5045461;28;20447;-75
2021/10/30 10:56:11;;;;;;;194.93;45.07;;;11.60;99.90;;;;;;5012507;28;20448;-75
2021/10/30 10:59:17;;;;;;;195.33;42.53;;;11.60;99.90;;;;;;5012232;28;20463;-75
2021/10/30 11:02:21;;;;;;;289.03;66.33;;;11.60;99.90;;;;;;5012305;28;20440;-75
2021/10/30 11:05:27;;;;;;;194.40;56.87;;;11.60;99.90;;;;;;5013928;28;20859;-75
2021/10/30 11:08:25;;;;;;;325.37;73.27;;;11.60;99.90;;;;;;4983102;28;20447;-75
2021/10/30 11:11:11;;;;;;;276.73;66.83;;;11.60;99.90;;;;;;5013642;28;20463;-75
2021/10/30 11:13:50;;;;;;;326.83;73.60;;;11.70;99.90;;;;;;5012144;28;20952;-75
2021/10/30 11:16:25;;;;;;;219.20;61.90;;;11.70;99.90;;;;;;5012134;28;20531;-75
2021/10/30 11:19:06;;;;;;;293.50;66.80;;;11.70;99.90;;;;;;5012532;28;20471;-75
2021/10/30 11:21:42;;;;;;;262.97;60.17;;;11.70;99.90;;;;;;5012148;28;20945;-75
2021/10/30 11:24:22;;;;;;;332.93;80.83;;;11.70;99.90;;;;;;5013687;28;20838;-75
2021/10/30 11:27:04;;;;;;;304.60;79.77;;;11.70;99.90;;;;;;5012047;28;20797;-75
2021/10/30 11:29:33;;;;;;;285.57;72.97;;;11.70;99.90;;;;;;5011969;28;20922;-75
2021/10/30 11:32:03;;;;;;;316.60;69.27;;;11.80;99.90;;;;;;5011975;28;20531;-75
2021/10/30 11:34:32;;;;;;;346.57;77.63;;;11.80;99.90;;;;;;5011991;28;20434;-75
2021/10/30 11:37:01;;;;;;;271.33;58.80;;;11.80;99.90;;;;;;5011902;28;20448;-75
2021/10/30 11:39:32;;;;;;;239.10;59.13;;;11.90;99.90;;;;;;5013098;28;20482;-75
2021/10/30 11:42:04;;;;;;;278.67;79.23;;;11.90;99.90;;;;;;5013462;28;20472;-75
2021/10/30 11:44:47;;;;;;;367.90;76.60;;;11.90;99.90;;;;;;5011742;28;20451;-75
2021/10/30 11:47:16;;;;;;;418.80;83.10;;;11.90;99.90;;;;;;5011895;28;20817;-75
2021/10/30 11:49:44;;;;;;;321.87;64.23;;;11.90;99.90;;;;;;5013197;28;20546;-75
2021/10/30 11:52:14;;;;;;;410.07;89.17;;;12.00;99.90;;;;;;5013129;28;20946;-75
2021/10/30 11:54:42;;;;;;;219.03;66.23;;;12.00;99.90;;;;;;5011679;28;20502;-75
2021/10/30 11:57:11;;;;;;;381.57;77.97;;;12.00;99.90;;;;;;5014164;28;20884;-75
2021/10/30 11:59:39;;;;;;;348.33;80.50;;;12.00;99.90;;;;;;5016688;28;20476;-75
2021/10/30 12:02:12;;;;;;;380.27;82.03;;;12.10;99.90;;;;;;5015224;28;20452;-75
2021/10/30 12:04:41;;;;;;;226.93;77.77;;;12.10;99.90;;;;;;5016444;28;20428;-75
2021/10/30 12:07:14;;;;;;;335.10;107.33;;;12.10;99.90;;;;;;5016560;28;20428;-75
2021/10/30 12:09:45;;;;;;;249.70;72.13;;;12.20;99.90;;;;;;5016486;28;20459;-75
2021/10/30 12:12:22;;;;;;;350.43;82.07;;;12.20;99.90;;;;;;5016223;28;20501;-75
2021/10/30 12:14:52;;;;;;;373.50;105.57;;;12.20;99.90;;;;;;5016201;28;20890;-75
2021/10/30 12:17:29;;;;;;;331.20;87.20;;;12.20;99.90;;;;;;5047958;28;21036;-75
2021/10/30 12:20:00;;;;;;;349.70;108.47;;;12.20;99.90;;;;;;5016074;28;20463;-75
2021/10/30 12:22:31;;;;;;;327.03;86.80;;;12.20;99.90;;;;;;5014940;28;20455;-75
2021/10/30 12:25:04;;;;;;;477.77;116.50;;;12.30;99.90;;;;;;5014853;28;20448;-75
2021/10/30 12:27:33;;;;;;;339.33;93.50;;;12.30;99.90;;;;;;5016004;28;20804;-75
2021/10/30 12:30:09;;;;;;;440.63;127.53;;;12.30;99.90;;;;;;5016340;28;20861;-75
2021/10/30 12:32:41;;;;;;;113.77;49.90;;;12.30;99.90;;;;;;5014594;28;20451;-75
2021/10/30 12:35:15;;;;;;;366.87;106.70;;;12.30;99.90;;;;;;5015871;28;20483;-75